sensor_id;sensor_type;location;lat;lon;timestamp;P1;durP1;ratioP1;P2;durP2;ratioP2
46429;SDS011;32131;53.454;-6.180;2022-11-27T00:01:30;14.63;;;3.15;;
46429;SDS011;32131;53.454;-6.180;2022-11-27T00:03:59;19.88;;;2.92;;
46429;SDS011;32131;53.454;-6.180;2022-11-27T00:06:28;17.58;;;3.03;;
46429;SDS011;32131;53.454;-6.180;2022-11-27T00:08:58;16.50;;;3.40;;
46429;SDS011;32131;53.454;-6.180;2022-11-27T00:11:27;20.25;;;3.30;;
46429;SDS011;32131;53.454;-6.180;2022-11-27T00:13:57;21.05;;;3.75;;
46429;SDS011;32131;53.454;-6.180;2022-11-27T00:16:25;16.67;;;2.38;;
46429;SDS011;32131;53.454;-6.180;2022-11-27T00:18:56;27.05;;;4.75;;
46429;SDS011;32131;53.454;-6.180;2022-11-27T00:21:25;23.98;;;4.43;;
46429;SDS011;32131;53.454;-6.180;2022-11-27T00:23:56;19.08;;;4.13;;
46429;SDS011;32131;53.454;-6.180;2022-11-27T00:26:26;15.55;;;2.90;;
46429;SDS011;32131;53.454;-6.180;2022-11-27T00:29:02;17.27;;;4.13;;
46429;SDS011;32131;53.454;-6.180;2022-11-27T00:31:31;20.45;;;3.17;;
46429;SDS011;32131;53.454;-6.180;2022-11-27T00:34:02;14.80;;;3.30;;
46429;SDS011;32131;53.454;-6.180;2022-11-27T00:36:33;25.67;;;4.45;;
46429;SDS011;32131;53.454;-6.180;2022-11-27T00:39:02;20.30;;;3.63;;
46429;SDS011;32131;53.454;-6.180;2022-11-27T00:41:30;26.27;;;4.65;;
46429;SDS011;32131;53.454;-6.180;2022-11-27T00:43:59;21.27;;;3.28;;
46429;SDS011;32131;53.454;-6.180;2022-11-27T00:46:27;16.73;;;4.75;;
46429;SDS011;32131;53.454;-6.180;2022-11-27T00:48:58;18.58;;;3.55;;
46429;SDS011;32131;53.454;-6.180;2022-11-27T00:51:28;24.13;;;3.90;;
46429;SDS011;32131;53.454;-6.180;2022-11-27T00:53:57;26.88;;;4.78;;
46429;SDS011;32131;53.454;-6.180;2022-11-27T00:56:26;25.92;;;3.88;;
46429;SDS011;32131;53.454;-6.180;2022-11-27T00:58:56;21.35;;;3.97;;
46429;SDS011;32131;53.454;-6.180;2022-11-27T01:01:25;19.38;;;3.90;;
46429;SDS011;32131;53.454;-6.180;2022-11-27T01:03:54;22.80;;;4.15;;
46429;SDS011;32131;53.454;-6.180;2022-11-27T01:06:24;19.65;;;3.35;;
46429;SDS011;32131;53.454;-6.180;2022-11-27T01:08:54;17.90;;;3.42;;
46429;SDS011;32131;53.454;-6.180;2022-11-27T01:11:22;23.60;;;3.00;;
46429;SDS011;32131;53.454;-6.180;2022-11-27T01:16:22;20.98;;;3.78;;
46429;SDS011;32131;53.454;-6.180;2022-11-27T01:18:53;21.08;;;3.80;;
46429;SDS011;32131;53.454;-6.180;2022-11-27T01:21:23;17.60;;;3.53;;
46429;SDS011;32131;53.454;-6.180;2022-11-27T01:23:55;29.55;;;4.63;;
46429;SDS011;32131;53.454;-6.180;2022-11-27T01:26:23;26.73;;;4.22;;
46429;SDS011;32131;53.454;-6.180;2022-11-27T01:28:52;28.40;;;4.43;;
46429;SDS011;32131;53.454;-6.180;2022-11-27T01:31:23;29.17;;;5.35;;
46429;SDS011;32131;53.454;-6.180;2022-11-27T01:33:53;21.10;;;3.60;;
46429;SDS011;32131;53.454;-6.180;2022-11-27T01:36:22;22.60;;;3.90;;
46429;SDS011;32131;53.454;-6.180;2022-11-27T01:38:51;23.48;;;3.90;;
46429;SDS011;32131;53.454;-6.180;2022-11-27T01:41:21;22.88;;;3.60;;
46429;SDS011;32131;53.454;-6.180;2022-11-27T01:43:52;22.67;;;3.97;;
46429;SDS011;32131;53.454;-6.180;2022-11-27T01:46:29;14.23;;;3.63;;
46429;SDS011;32131;53.454;-6.180;2022-11-27T01:49:11;13.52;;;3.55;;
46429;SDS011;32131;53.454;-6.180;2022-11-27T01:52:00;22.80;;;4.13;;
46429;SDS011;32131;53.454;-6.180;2022-11-27T01:54:33;25.98;;;4.50;;
46429;SDS011;32131;53.454;-6.180;2022-11-27T01:57:09;23.55;;;4.78;;
46429;SDS011;32131;53.454;-6.180;2022-11-27T01:59:41;18.48;;;4.13;;
46429;SDS011;32131;53.454;-6.180;2022-11-27T02:02:10;14.75;;;3.28;;
46429;SDS011;32131;53.454;-6.180;2022-11-27T02:04:38;19.45;;;3.35;;
46429;SDS011;32131;53.454;-6.180;2022-11-27T02:07:07;15.00;;;3.17;;
46429;SDS011;32131;53.454;-6.180;2022-11-27T02:09:35;21.77;;;4.07;;
46429;SDS011;32131;53.454;-6.180;2022-11-27T02:12:09;21.13;;;3.92;;
46429;SDS011;32131;53.454;-6.180;2022-11-27T02:14:53;22.50;;;3.63;;
46429;SDS011;32131;53.454;-6.180;2022-11-27T02:17:31;21.20;;;3.42;;
46429;SDS011;32131;53.454;-6.180;2022-11-27T02:20:12;19.15;;;3.20;;
46429;SDS011;32131;53.454;-6.180;2022-11-27T02:25:42;21.55;;;3.92;;
46429;SDS011;32131;53.454;-6.180;2022-11-27T02:28:32;19.98;;;3.22;;
46429;SDS011;32131;53.454;-6.180;2022-11-27T02:31:11;18.45;;;3.25;;
46429;SDS011;32131;53.454;-6.180;2022-11-27T02:33:45;29.63;;;3.47;;
46429;SDS011;32131;53.454;-6.180;2022-11-27T02:36:20;25.70;;;3.20;;
46429;SDS011;32131;53.454;-6.180;2022-11-27T02:38:54;22.13;;;3.33;;
46429;SDS011;32131;53.454;-6.180;2022-11-27T02:41:29;23.60;;;3.58;;
46429;SDS011;32131;53.454;-6.180;2022-11-27T02:44:04;16.13;;;3.20;;
46429;SDS011;32131;53.454;-6.180;2022-11-27T02:46:36;22.70;;;3.72;;
46429;SDS011;32131;53.454;-6.180;2022-11-27T02:49:07;17.75;;;3.65;;
46429;SDS011;32131;53.454;-6.180;2022-11-27T02:51:40;26.58;;;4.13;;
46429;SDS011;32131;53.454;-6.180;2022-11-27T02:54:13;27.48;;;4.43;;
46429;SDS011;32131;53.454;-6.180;2022-11-27T02:56:46;21.88;;;3.47;;
46429;SDS011;32131;53.454;-6.180;2022-11-27T02:59:16;21.15;;;3.88;;
46429;SDS011;32131;53.454;-6.180;2022-11-27T03:01:48;15.27;;;3.63;;
46429;SDS011;32131;53.454;-6.180;2022-11-27T03:04:22;23.33;;;3.90;;
46429;SDS011;32131;53.454;-6.180;2022-11-27T03:06:54;17.13;;;4.25;;
46429;SDS011;32131;53.454;-6.180;2022-11-27T03:09:26;28.15;;;4.03;;
46429;SDS011;32131;53.454;-6.180;2022-11-27T03:11:59;15.85;;;2.90;;
46429;SDS011;32131;53.454;-6.180;2022-11-27T03:14:29;23.85;;;3.65;;
46429;SDS011;32131;53.454;-6.180;2022-11-27T03:17:00;12.82;;;2.45;;
46429;SDS011;32131;53.454;-6.180;2022-11-27T03:19:35;34.00;;;3.88;;
46429;SDS011;32131;53.454;-6.180;2022-11-27T03:22:08;20.95;;;3.30;;
46429;SDS011;32131;53.454;-6.180;2022-11-27T03:24:38;17.20;;;3.35;;
46429;SDS011;32131;53.454;-6.180;2022-11-27T03:27:06;22.30;;;4.38;;
46429;SDS011;32131;53.454;-6.180;2022-11-27T03:29:40;24.40;;;3.90;;
46429;SDS011;32131;53.454;-6.180;2022-11-27T03:32:13;15.35;;;2.45;;
46429;SDS011;32131;53.454;-6.180;2022-11-27T03:34:42;20.05;;;3.28;;
46429;SDS011;32131;53.454;-6.180;2022-11-27T03:37:10;31.30;;;4.55;;
46429;SDS011;32131;53.454;-6.180;2022-11-27T03:39:38;13.50;;;2.80;;
46429;SDS011;32131;53.454;-6.180;2022-11-27T03:42:08;23.77;;;4.03;;
46429;SDS011;32131;53.454;-6.180;2022-11-27T03:44:45;24.92;;;3.53;;
46429;SDS011;32131;53.454;-6.180;2022-11-27T03:47:24;28.02;;;3.75;;
46429;SDS011;32131;53.454;-6.180;2022-11-27T03:50:09;23.05;;;3.72;;
46429;SDS011;32131;53.454;-6.180;2022-11-27T03:52:49;28.98;;;3.90;;
46429;SDS011;32131;53.454;-6.180;2022-11-27T03:55:27;16.40;;;3.35;;
46429;SDS011;32131;53.454;-6.180;2022-11-27T03:58:04;14.20;;;3.33;;
46429;SDS011;32131;53.454;-6.180;2022-11-27T04:00:36;21.25;;;3.95;;
46429;SDS011;32131;53.454;-6.180;2022-11-27T04:03:09;24.45;;;3.42;;
46429;SDS011;32131;53.454;-6.180;2022-11-27T04:05:39;28.20;;;3.97;;
46429;SDS011;32131;53.454;-6.180;2022-11-27T04:08:07;31.20;;;4.20;;
46429;SDS011;32131;53.454;-6.180;2022-11-27T04:10:35;19.27;;;3.80;;
46429;SDS011;32131;53.454;-6.180;2022-11-27T04:13:04;21.73;;;3.70;;
46429;SDS011;32131;53.454;-6.180;2022-11-27T04:15:32;29.35;;;3.80;;
46429;SDS011;32131;53.454;-6.180;2022-11-27T04:18:00;17.48;;;3.38;;
46429;SDS011;32131;53.454;-6.180;2022-11-27T04:20:29;19.88;;;3.58;;
46429;SDS011;32131;53.454;-6.180;2022-11-27T04:22:57;21.88;;;3.67;;
46429;SDS011;32131;53.454;-6.180;2022-11-27T04:25:26;22.35;;;3.58;;
46429;SDS011;32131;53.454;-6.180;2022-11-27T04:27:54;22.23;;;3.40;;
46429;SDS011;32131;53.454;-6.180;2022-11-27T04:30:22;14.38;;;2.88;;
46429;SDS011;32131;53.454;-6.180;2022-11-27T04:32:50;17.38;;;3.00;;
46429;SDS011;32131;53.454;-6.180;2022-11-27T04:35:18;22.67;;;3.70;;
46429;SDS011;32131;53.454;-6.180;2022-11-27T04:37:48;12.23;;;2.72;;
46429;SDS011;32131;53.454;-6.180;2022-11-27T04:40:16;22.23;;;3.33;;
46429;SDS011;32131;53.454;-6.180;2022-11-27T04:42:44;23.70;;;3.25;;
46429;SDS011;32131;53.454;-6.180;2022-11-27T04:45:12;20.70;;;3.50;;
46429;SDS011;32131;53.454;-6.180;2022-11-27T04:47:40;21.13;;;3.50;;
46429;SDS011;32131;53.454;-6.180;2022-11-27T04:50:08;22.38;;;3.35;;
46429;SDS011;32131;53.454;-6.180;2022-11-27T04:52:37;32.20;;;4.20;;
46429;SDS011;32131;53.454;-6.180;2022-11-27T04:55:07;17.30;;;3.38;;
46429;SDS011;32131;53.454;-6.180;2022-11-27T04:57:35;28.52;;;3.42;;
46429;SDS011;32131;53.454;-6.180;2022-11-27T05:00:04;22.13;;;3.08;;
46429;SDS011;32131;53.454;-6.180;2022-11-27T05:02:33;21.08;;;3.65;;
46429;SDS011;32131;53.454;-6.180;2022-11-27T05:05:01;29.05;;;4.25;;
46429;SDS011;32131;53.454;-6.180;2022-11-27T05:07:30;25.67;;;3.80;;
46429;SDS011;32131;53.454;-6.180;2022-11-27T05:09:59;16.83;;;3.65;;
46429;SDS011;32131;53.454;-6.180;2022-11-27T05:12:29;19.52;;;3.17;;
46429;SDS011;32131;53.454;-6.180;2022-11-27T05:14:57;19.85;;;3.17;;
46429;SDS011;32131;53.454;-6.180;2022-11-27T05:17:29;22.27;;;3.60;;
46429;SDS011;32131;53.454;-6.180;2022-11-27T05:19:58;23.48;;;4.18;;
46429;SDS011;32131;53.454;-6.180;2022-11-27T05:22:26;24.15;;;3.65;;
46429;SDS011;32131;53.454;-6.180;2022-11-27T05:24:54;31.30;;;3.65;;
46429;SDS011;32131;53.454;-6.180;2022-11-27T05:27:22;19.17;;;3.13;;
46429;SDS011;32131;53.454;-6.180;2022-11-27T05:29:52;27.73;;;3.42;;
46429;SDS011;32131;53.454;-6.180;2022-11-27T05:32:20;22.25;;;3.35;;
46429;SDS011;32131;53.454;-6.180;2022-11-27T05:34:48;25.42;;;4.00;;
46429;SDS011;32131;53.454;-6.180;2022-11-27T05:37:16;25.95;;;4.45;;
46429;SDS011;32131;53.454;-6.180;2022-11-27T05:39:45;25.00;;;2.95;;
46429;SDS011;32131;53.454;-6.180;2022-11-27T05:42:13;21.63;;;3.78;;
46429;SDS011;32131;53.454;-6.180;2022-11-27T05:44:41;26.13;;;3.78;;
46429;SDS011;32131;53.454;-6.180;2022-11-27T05:47:11;27.30;;;4.65;;
46429;SDS011;32131;53.454;-6.180;2022-11-27T05:49:39;20.67;;;3.88;;
46429;SDS011;32131;53.454;-6.180;2022-11-27T05:52:07;17.60;;;3.35;;
46429;SDS011;32131;53.454;-6.180;2022-11-27T05:54:35;23.92;;;3.58;;
46429;SDS011;32131;53.454;-6.180;2022-11-27T05:57:04;28.00;;;3.30;;
46429;SDS011;32131;53.454;-6.180;2022-11-27T05:59:32;19.50;;;2.90;;
46429;SDS011;32131;53.454;-6.180;2022-11-27T06:02:00;18.63;;;3.78;;
46429;SDS011;32131;53.454;-6.180;2022-11-27T06:04:30;16.40;;;3.13;;
46429;SDS011;32131;53.454;-6.180;2022-11-27T06:06:59;27.38;;;3.78;;
46429;SDS011;32131;53.454;-6.180;2022-11-27T06:09:27;29.60;;;3.58;;
46429;SDS011;32131;53.454;-6.180;2022-11-27T06:11:55;17.63;;;3.20;;
46429;SDS011;32131;53.454;-6.180;2022-11-27T06:14:23;32.05;;;4.03;;
46429;SDS011;32131;53.454;-6.180;2022-11-27T06:16:52;18.10;;;3.13;;
46429;SDS011;32131;53.454;-6.180;2022-11-27T06:19:20;20.83;;;4.40;;
46429;SDS011;32131;53.454;-6.180;2022-11-27T06:21:49;20.33;;;3.90;;
46429;SDS011;32131;53.454;-6.180;2022-11-27T06:24:18;21.52;;;3.08;;
46429;SDS011;32131;53.454;-6.180;2022-11-27T06:26:46;18.33;;;2.92;;
46429;SDS011;32131;53.454;-6.180;2022-11-27T06:29:14;16.55;;;3.67;;
46429;SDS011;32131;53.454;-6.180;2022-11-27T06:31:42;32.90;;;4.15;;
46429;SDS011;32131;53.454;-6.180;2022-11-27T06:34:11;13.45;;;2.95;;
46429;SDS011;32131;53.454;-6.180;2022-11-27T06:36:39;32.25;;;4.05;;
46429;SDS011;32131;53.454;-6.180;2022-11-27T06:39:09;33.63;;;3.90;;
46429;SDS011;32131;53.454;-6.180;2022-11-27T06:44:05;23.63;;;3.42;;
46429;SDS011;32131;53.454;-6.180;2022-11-27T06:46:33;15.85;;;2.78;;
46429;SDS011;32131;53.454;-6.180;2022-11-27T06:49:01;11.13;;;2.80;;
46429;SDS011;32131;53.454;-6.180;2022-11-27T06:51:30;19.48;;;3.88;;
46429;SDS011;32131;53.454;-6.180;2022-11-27T06:53:59;23.70;;;3.10;;
46429;SDS011;32131;53.454;-6.180;2022-11-27T06:56:30;17.42;;;2.88;;
46429;SDS011;32131;53.454;-6.180;2022-11-27T06:58:58;30.35;;;3.67;;
46429;SDS011;32131;53.454;-6.180;2022-11-27T07:01:28;23.83;;;3.05;;
46429;SDS011;32131;53.454;-6.180;2022-11-27T07:03:57;19.00;;;3.28;;
46429;SDS011;32131;53.454;-6.180;2022-11-27T07:06:26;17.92;;;3.30;;
46429;SDS011;32131;53.454;-6.180;2022-11-27T07:08:55;16.65;;;3.58;;
46429;SDS011;32131;53.454;-6.180;2022-11-27T07:11:24;18.95;;;3.05;;
46429;SDS011;32131;53.454;-6.180;2022-11-27T07:13:57;28.38;;;3.53;;
46429;SDS011;32131;53.454;-6.180;2022-11-27T07:16:27;28.23;;;3.60;;
46429;SDS011;32131;53.454;-6.180;2022-11-27T07:18:57;17.60;;;3.28;;
46429;SDS011;32131;53.454;-6.180;2022-11-27T07:21:28;29.50;;;3.05;;
46429;SDS011;32131;53.454;-6.180;2022-11-27T07:23:56;23.08;;;3.20;;
46429;SDS011;32131;53.454;-6.180;2022-11-27T07:26:25;21.25;;;3.13;;
46429;SDS011;32131;53.454;-6.180;2022-11-27T07:28:54;21.30;;;3.83;;
46429;SDS011;32131;53.454;-6.180;2022-11-27T07:31:24;26.23;;;3.35;;
46429;SDS011;32131;53.454;-6.180;2022-11-27T07:33:54;17.60;;;2.70;;
46429;SDS011;32131;53.454;-6.180;2022-11-27T07:36:24;21.85;;;3.03;;
46429;SDS011;32131;53.454;-6.180;2022-11-27T07:38:53;24.95;;;3.63;;
46429;SDS011;32131;53.454;-6.180;2022-11-27T07:41:21;18.45;;;2.78;;
46429;SDS011;32131;53.454;-6.180;2022-11-27T07:43:54;20.13;;;3.20;;
46429;SDS011;32131;53.454;-6.180;2022-11-27T07:46:24;25.45;;;3.65;;
46429;SDS011;32131;53.454;-6.180;2022-11-27T07:48:52;20.60;;;4.55;;
46429;SDS011;32131;53.454;-6.180;2022-11-27T07:51:20;27.65;;;3.72;;
46429;SDS011;32131;53.454;-6.180;2022-11-27T07:53:48;21.58;;;3.10;;
46429;SDS011;32131;53.454;-6.180;2022-11-27T07:56:18;19.35;;;3.75;;
46429;SDS011;32131;53.454;-6.180;2022-11-27T07:58:46;29.40;;;4.53;;
46429;SDS011;32131;53.454;-6.180;2022-11-27T08:01:16;26.95;;;3.53;;
46429;SDS011;32131;53.454;-6.180;2022-11-27T08:03:47;20.40;;;2.95;;
46429;SDS011;32131;53.454;-6.180;2022-11-27T08:06:15;13.85;;;2.97;;
46429;SDS011;32131;53.454;-6.180;2022-11-27T08:08:45;25.42;;;3.30;;
46429;SDS011;32131;53.454;-6.180;2022-11-27T08:11:14;23.17;;;2.80;;
46429;SDS011;32131;53.454;-6.180;2022-11-27T08:13:44;22.48;;;4.00;;
46429;SDS011;32131;53.454;-6.180;2022-11-27T08:16:12;15.20;;;2.65;;
46429;SDS011;32131;53.454;-6.180;2022-11-27T08:18:41;21.52;;;3.13;;
46429;SDS011;32131;53.454;-6.180;2022-11-27T08:21:10;25.00;;;3.38;;
46429;SDS011;32131;53.454;-6.180;2022-11-27T08:23:39;16.73;;;3.60;;
46429;SDS011;32131;53.454;-6.180;2022-11-27T08:26:07;19.05;;;3.45;;
46429;SDS011;32131;53.454;-6.180;2022-11-27T08:28:36;16.20;;;3.03;;
46429;SDS011;32131;53.454;-6.180;2022-11-27T08:31:05;26.17;;;3.60;;
46429;SDS011;32131;53.454;-6.180;2022-11-27T08:33:35;22.15;;;3.83;;
46429;SDS011;32131;53.454;-6.180;2022-11-27T08:36:03;23.80;;;2.70;;
46429;SDS011;32131;53.454;-6.180;2022-11-27T08:38:38;23.73;;;2.78;;
46429;SDS011;32131;53.454;-6.180;2022-11-27T08:41:06;16.40;;;2.40;;
46429;SDS011;32131;53.454;-6.180;2022-11-27T08:43:35;18.63;;;2.72;;
46429;SDS011;32131;53.454;-6.180;2022-11-27T08:46:04;17.58;;;2.70;;
46429;SDS011;32131;53.454;-6.180;2022-11-27T08:48:33;13.57;;;3.17;;
46429;SDS011;32131;53.454;-6.180;2022-11-27T08:51:03;14.07;;;2.60;;
46429;SDS011;32131;53.454;-6.180;2022-11-27T08:53:33;21.25;;;2.72;;
46429;SDS011;32131;53.454;-6.180;2022-11-27T08:56:08;16.50;;;3.00;;
46429;SDS011;32131;53.454;-6.180;2022-11-27T08:58:40;17.08;;;3.22;;
46429;SDS011;32131;53.454;-6.180;2022-11-27T09:01:09;19.35;;;2.33;;
46429;SDS011;32131;53.454;-6.180;2022-11-27T09:03:40;12.98;;;2.47;;
46429;SDS011;32131;53.454;-6.180;2022-11-27T09:06:09;28.70;;;4.32;;
46429;SDS011;32131;53.454;-6.180;2022-11-27T09:11:10;24.13;;;3.25;;
46429;SDS011;32131;53.454;-6.180;2022-11-27T09:13:40;20.80;;;3.47;;
46429;SDS011;32131;53.454;-6.180;2022-11-27T09:16:10;28.95;;;3.70;;
46429;SDS011;32131;53.454;-6.180;2022-11-27T09:18:39;23.48;;;3.58;;
46429;SDS011;32131;53.454;-6.180;2022-11-27T09:21:10;17.63;;;2.55;;
46429;SDS011;32131;53.454;-6.180;2022-11-27T09:23:39;25.33;;;3.83;;
46429;SDS011;32131;53.454;-6.180;2022-11-27T09:26:08;15.57;;;3.10;;
46429;SDS011;32131;53.454;-6.180;2022-11-27T09:28:39;23.85;;;3.53;;
46429;SDS011;32131;53.454;-6.180;2022-11-27T09:31:09;15.52;;;3.63;;
46429;SDS011;32131;53.454;-6.180;2022-11-27T09:33:38;22.75;;;3.08;;
46429;SDS011;32131;53.454;-6.180;2022-11-27T09:36:08;13.87;;;3.20;;
46429;SDS011;32131;53.454;-6.180;2022-11-27T09:38:38;29.58;;;3.90;;
46429;SDS011;32131;53.454;-6.180;2022-11-27T09:41:12;23.75;;;3.75;;
46429;SDS011;32131;53.454;-6.180;2022-11-27T09:43:55;21.02;;;3.35;;
46429;SDS011;32131;53.454;-6.180;2022-11-27T09:46:29;21.90;;;4.13;;
46429;SDS011;32131;53.454;-6.180;2022-11-27T09:48:59;20.45;;;2.78;;
46429;SDS011;32131;53.454;-6.180;2022-11-27T09:51:32;21.15;;;2.92;;
46429;SDS011;32131;53.454;-6.180;2022-11-27T09:54:05;13.50;;;2.95;;
46429;SDS011;32131;53.454;-6.180;2022-11-27T09:56:43;24.35;;;3.38;;
46429;SDS011;32131;53.454;-6.180;2022-11-27T09:59:17;11.85;;;2.45;;
46429;SDS011;32131;53.454;-6.180;2022-11-27T10:01:48;18.20;;;2.47;;
46429;SDS011;32131;53.454;-6.180;2022-11-27T10:04:17;16.75;;;2.42;;
46429;SDS011;32131;53.454;-6.180;2022-11-27T10:09:46;14.55;;;2.78;;
46429;SDS011;32131;53.454;-6.180;2022-11-27T10:12:32;15.75;;;3.60;;
46429;SDS011;32131;53.454;-6.180;2022-11-27T10:15:11;19.33;;;3.30;;
46429;SDS011;32131;53.454;-6.180;2022-11-27T10:17:43;17.35;;;2.88;;
46429;SDS011;32131;53.454;-6.180;2022-11-27T10:20:20;19.30;;;2.40;;
46429;SDS011;32131;53.454;-6.180;2022-11-27T10:22:56;16.35;;;2.78;;
46429;SDS011;32131;53.454;-6.180;2022-11-27T10:25:31;18.88;;;2.95;;
46429;SDS011;32131;53.454;-6.180;2022-11-27T10:28:10;16.58;;;2.53;;
46429;SDS011;32131;53.454;-6.180;2022-11-27T10:30:59;25.17;;;2.63;;
46429;SDS011;32131;53.454;-6.180;2022-11-27T10:33:33;21.08;;;3.40;;
46429;SDS011;32131;53.454;-6.180;2022-11-27T10:36:08;19.40;;;2.65;;
46429;SDS011;32131;53.454;-6.180;2022-11-27T10:38:40;18.42;;;3.53;;
46429;SDS011;32131;53.454;-6.180;2022-11-27T10:41:10;19.17;;;3.17;;
46429;SDS011;32131;53.454;-6.180;2022-11-27T10:44:21;16.73;;;2.97;;
46429;SDS011;32131;53.454;-6.180;2022-11-27T10:46:57;22.20;;;3.17;;
46429;SDS011;32131;53.454;-6.180;2022-11-27T10:49:28;20.40;;;2.80;;
46429;SDS011;32131;53.454;-6.180;2022-11-27T10:51:57;21.92;;;3.72;;
46429;SDS011;32131;53.454;-6.180;2022-11-27T10:54:27;11.80;;;3.10;;
46429;SDS011;32131;53.454;-6.180;2022-11-27T10:57:02;16.13;;;2.65;;
46429;SDS011;32131;53.454;-6.180;2022-11-27T10:59:42;7.68;;;1.77;;
46429;SDS011;32131;53.454;-6.180;2022-11-27T11:02:29;14.95;;;2.10;;
46429;SDS011;32131;53.454;-6.180;2022-11-27T11:05:08;11.90;;;2.40;;
46429;SDS011;32131;53.454;-6.180;2022-11-27T11:08:00;12.75;;;1.92;;
46429;SDS011;32131;53.454;-6.180;2022-11-27T11:10:33;10.65;;;1.83;;
46429;SDS011;32131;53.454;-6.180;2022-11-27T11:13:03;13.70;;;1.63;;
46429;SDS011;32131;53.454;-6.180;2022-11-27T11:15:33;17.27;;;1.70;;
46429;SDS011;32131;53.454;-6.180;2022-11-27T11:18:18;14.20;;;2.25;;
46429;SDS011;32131;53.454;-6.180;2022-11-27T11:20:49;12.90;;;1.98;;
46429;SDS011;32131;53.454;-6.180;2022-11-27T11:23:20;13.50;;;1.55;;
46429;SDS011;32131;53.454;-6.180;2022-11-27T11:25:50;19.55;;;2.30;;
46429;SDS011;32131;53.454;-6.180;2022-11-27T11:28:21;7.75;;;1.25;;
46429;SDS011;32131;53.454;-6.180;2022-11-27T11:30:52;13.95;;;2.15;;
46429;SDS011;32131;53.454;-6.180;2022-11-27T11:33:26;9.07;;;1.92;;
46429;SDS011;32131;53.454;-6.180;2022-11-27T11:35:56;8.30;;;1.75;;
46429;SDS011;32131;53.454;-6.180;2022-11-27T11:38:34;12.05;;;1.95;;
46429;SDS011;32131;53.454;-6.180;2022-11-27T11:41:04;14.05;;;2.50;;
46429;SDS011;32131;53.454;-6.180;2022-11-27T11:43:35;11.48;;;1.92;;
46429;SDS011;32131;53.454;-6.180;2022-11-27T11:46:05;10.80;;;1.87;;
46429;SDS011;32131;53.454;-6.180;2022-11-27T11:48:52;8.82;;;1.85;;
46429;SDS011;32131;53.454;-6.180;2022-11-27T11:51:24;8.93;;;1.90;;
46429;SDS011;32131;53.454;-6.180;2022-11-27T11:54:11;17.17;;;1.98;;
46429;SDS011;32131;53.454;-6.180;2022-11-27T11:56:51;8.90;;;2.20;;
46429;SDS011;32131;53.454;-6.180;2022-11-27T11:59:25;8.55;;;1.98;;
46429;SDS011;32131;53.454;-6.180;2022-11-27T12:02:04;12.63;;;2.63;;
46429;SDS011;32131;53.454;-6.180;2022-11-27T12:04:59;12.57;;;2.05;;
46429;SDS011;32131;53.454;-6.180;2022-11-27T12:07:42;15.10;;;1.90;;
46429;SDS011;32131;53.454;-6.180;2022-11-27T12:10:21;11.48;;;2.40;;
46429;SDS011;32131;53.454;-6.180;2022-11-27T12:12:57;19.35;;;2.83;;
46429;SDS011;32131;53.454;-6.180;2022-11-27T12:15:37;13.00;;;2.55;;
46429;SDS011;32131;53.454;-6.180;2022-11-27T12:18:12;10.50;;;2.08;;
46429;SDS011;32131;53.454;-6.180;2022-11-27T12:20:52;8.77;;;2.17;;
46429;SDS011;32131;53.454;-6.180;2022-11-27T12:26:35;14.43;;;2.45;;
46429;SDS011;32131;53.454;-6.180;2022-11-27T12:32:27;15.18;;;3.10;;
46429;SDS011;32131;53.454;-6.180;2022-11-27T12:35:15;6.68;;;1.30;;
46429;SDS011;32131;53.454;-6.180;2022-11-27T12:37:59;4.43;;;0.90;;
46429;SDS011;32131;53.454;-6.180;2022-11-27T12:40:42;4.88;;;0.68;;
46429;SDS011;32131;53.454;-6.180;2022-11-27T12:43:21;7.18;;;1.23;;
46429;SDS011;32131;53.454;-6.180;2022-11-27T12:45:54;4.40;;;0.95;;
46429;SDS011;32131;53.454;-6.180;2022-11-27T12:48:26;3.80;;;0.93;;
46429;SDS011;32131;53.454;-6.180;2022-11-27T12:51:03;6.05;;;0.70;;
46429;SDS011;32131;53.454;-6.180;2022-11-27T12:53:37;4.60;;;0.70;;
46429;SDS011;32131;53.454;-6.180;2022-11-27T12:56:11;6.93;;;1.05;;
46429;SDS011;32131;53.454;-6.180;2022-11-27T12:58:43;3.13;;;0.95;;
46429;SDS011;32131;53.454;-6.180;2022-11-27T13:01:15;8.18;;;0.80;;
46429;SDS011;32131;53.454;-6.180;2022-11-27T13:03:57;6.10;;;1.08;;
46429;SDS011;32131;53.454;-6.180;2022-11-27T13:06:33;8.13;;;1.30;;
46429;SDS011;32131;53.454;-6.180;2022-11-27T13:09:11;6.55;;;1.02;;
46429;SDS011;32131;53.454;-6.180;2022-11-27T13:11:45;9.68;;;1.02;;
46429;SDS011;32131;53.454;-6.180;2022-11-27T13:14:15;4.13;;;0.80;;
46429;SDS011;32131;53.454;-6.180;2022-11-27T13:16:46;4.70;;;1.00;;
46429;SDS011;32131;53.454;-6.180;2022-11-27T13:19:21;6.38;;;1.05;;
46429;SDS011;32131;53.454;-6.180;2022-11-27T13:21:54;7.88;;;1.63;;
46429;SDS011;32131;53.454;-6.180;2022-11-27T13:24:25;5.38;;;0.95;;
46429;SDS011;32131;53.454;-6.180;2022-11-27T13:26:57;3.05;;;0.90;;
46429;SDS011;32131;53.454;-6.180;2022-11-27T13:29:30;5.45;;;1.05;;
46429;SDS011;32131;53.454;-6.180;2022-11-27T13:32:05;4.78;;;1.00;;
46429;SDS011;32131;53.454;-6.180;2022-11-27T13:34:40;9.57;;;1.02;;
46429;SDS011;32131;53.454;-6.180;2022-11-27T13:37:18;4.97;;;0.98;;
46429;SDS011;32131;53.454;-6.180;2022-11-27T13:40:03;4.97;;;0.77;;
46429;SDS011;32131;53.454;-6.180;2022-11-27T13:42:33;2.10;;;0.60;;
46429;SDS011;32131;53.454;-6.180;2022-11-27T13:47:34;1.73;;;0.50;;
46429;SDS011;32131;53.454;-6.180;2022-11-27T13:50:06;5.85;;;0.68;;
46429;SDS011;32131;53.454;-6.180;2022-11-27T13:52:36;1.52;;;0.52;;
46429;SDS011;32131;53.454;-6.180;2022-11-27T13:55:23;1.10;;;0.50;;
46429;SDS011;32131;53.454;-6.180;2022-11-27T13:57:52;5.43;;;0.50;;
46429;SDS011;32131;53.454;-6.180;2022-11-27T14:00:29;0.20;;;0.10;;
46429;SDS011;32131;53.454;-6.180;2022-11-27T14:03:00;2.33;;;0.50;;
46429;SDS011;32131;53.454;-6.180;2022-11-27T14:05:35;4.55;;;0.82;;
46429;SDS011;32131;53.454;-6.180;2022-11-27T14:08:16;1.50;;;0.57;;
46429;SDS011;32131;53.454;-6.180;2022-11-27T14:10:49;5.15;;;0.98;;
46429;SDS011;32131;53.454;-6.180;2022-11-27T14:13:20;4.07;;;0.60;;
46429;SDS011;32131;53.454;-6.180;2022-11-27T14:15:56;3.08;;;0.65;;
46429;SDS011;32131;53.454;-6.180;2022-11-27T14:18:27;4.70;;;0.70;;
46429;SDS011;32131;53.454;-6.180;2022-11-27T14:20:58;2.95;;;0.60;;
46429;SDS011;32131;53.454;-6.180;2022-11-27T14:23:29;4.57;;;0.60;;
46429;SDS011;32131;53.454;-6.180;2022-11-27T14:26:04;5.93;;;0.88;;
46429;SDS011;32131;53.454;-6.180;2022-11-27T14:28:41;6.45;;;1.30;;
46429;SDS011;32131;53.454;-6.180;2022-11-27T14:33:48;2.72;;;0.88;;
46429;SDS011;32131;53.454;-6.180;2022-11-27T14:36:36;1.83;;;0.63;;
46429;SDS011;32131;53.454;-6.180;2022-11-27T14:39:04;4.05;;;1.00;;
46429;SDS011;32131;53.454;-6.180;2022-11-27T14:41:34;3.28;;;0.63;;
46429;SDS011;32131;53.454;-6.180;2022-11-27T14:44:03;3.17;;;0.90;;
46429;SDS011;32131;53.454;-6.180;2022-11-27T14:46:34;2.28;;;0.95;;
46429;SDS011;32131;53.454;-6.180;2022-11-27T14:49:03;3.20;;;1.25;;
46429;SDS011;32131;53.454;-6.180;2022-11-27T14:51:32;6.03;;;2.08;;
46429;SDS011;32131;53.454;-6.180;2022-11-27T14:54:03;4.03;;;1.20;;
46429;SDS011;32131;53.454;-6.180;2022-11-27T14:56:40;13.15;;;4.53;;
46429;SDS011;32131;53.454;-6.180;2022-11-27T14:59:10;7.13;;;0.98;;
46429;SDS011;32131;53.454;-6.180;2022-11-27T15:01:42;5.65;;;0.70;;
46429;SDS011;32131;53.454;-6.180;2022-11-27T15:04:24;7.82;;;1.45;;
46429;SDS011;32131;53.454;-6.180;2022-11-27T15:06:53;4.72;;;1.23;;
46429;SDS011;32131;53.454;-6.180;2022-11-27T15:09:22;8.60;;;1.50;;
46429;SDS011;32131;53.454;-6.180;2022-11-27T15:11:59;4.85;;;0.85;;
46429;SDS011;32131;53.454;-6.180;2022-11-27T15:14:35;2.60;;;1.27;;
46429;SDS011;32131;53.454;-6.180;2022-11-27T15:17:03;8.35;;;1.23;;